Time;durP1;ratioP1;P1;durP2;ratioP2;P2;SDS_P1;SDS_P2;PMS_P1;PMS_P2;Temp;Humidity;BMP_temperature;BMP_pressure;BME280_temperature;BME280_humidity;BME280_pressure;Samples;Min_cycle;Max_cycle;Signal;HPM_P1;HPM_P2
2022/10/01 00:02:13;;;;;;;0.43;0.43;;;;;;;10.55;100.00;100057.38;10587295;28;20364;-70
2022/10/01 00:07:14;;;;;;;0.47;0.47;;;;;;;10.58;100.00;100057.78;10587124;28;20035;-70
2022/10/01 00:12:15;;;;;;;0.40;0.40;;;;;;;10.67;100.00;100029.41;10568971;28;20042;-72
2022/10/01 00:17:15;;;;;;;0.50;0.50;;;;;;;10.66;100.00;100010.69;10538426;28;20027;-70
2022/10/01 00:22:17;;;;;;;0.57;0.57;;;;;;;10.71;100.00;100013.53;10586004;28;20471;-70
2022/10/01 00:27:18;;;;;;;0.40;0.40;;;;;;;10.75;100.00;99998.50;10587428;28;20063;-70
2022/10/01 00:32:19;;;;;;;0.63;0.63;;;;;;;10.75;100.00;99981.44;10567726;28;20379;-71
2022/10/01 00:37:21;;;;;;;0.50;0.50;;;;;;;10.77;100.00;99958.50;10585284;28;20032;-72
2022/10/01 00:42:23;;;;;;;0.30;0.30;;;;;;;10.83;100.00;99970.31;10567616;28;20044;-71
2022/10/01 00:47:35;;;;;;;0.30;0.30;;;;;;;10.82;100.00;99947.84;10582974;28;20103;-71
2022/10/01 00:52:38;;;;;;;0.40;0.40;;;;;;;10.85;100.00;99952.81;10567238;28;20054;-71
2022/10/01 00:57:39;;;;;;;0.43;0.43;;;;;;;10.82;100.00;99928.88;10583742;28;20440;-70
2022/10/01 01:02:40;;;;;;;0.47;0.47;;;;;;;10.80;100.00;99955.34;10549652;28;20100;-71
2022/10/01 01:07:45;;;;;;;0.50;0.50;;;;;;;10.82;100.00;99928.88;10584695;28;20035;-71
2022/10/01 01:12:55;;;;;;;0.50;0.50;;;;;;;10.94;100.00;99932.53;10566179;28;20042;-72
2022/10/01 01:18:14;;;;;;;0.43;0.43;;;;;;;11.00;100.00;99925.34;10566382;28;20030;-71
2022/10/01 01:23:15;;;;;;;0.45;0.45;;;;;;;11.01;100.00;99899.09;10584094;28;20077;-71
2022/10/01 01:28:37;;;;;;;0.50;0.50;;;;;;;11.15;100.00;99911.44;10584561;28;20055;-70
2022/10/01 01:33:37;;;;;;;0.47;0.47;;;;;;;11.21;100.00;99907.00;10565523;28;20077;-72
2022/10/01 01:38:41;;;;;;;0.30;0.30;;;;;;;11.26;100.00;99907.16;10548520;28;20037;-71
2022/10/01 01:43:43;;;;;;;4.82;4.53;;;;;;;11.22;100.00;99917.63;10564925;28;20043;-72
2022/10/01 01:48:48;;;;;;;5.57;5.15;;;;;;;11.27;100.00;99916.97;10547992;28;20039;-71
2022/10/01 01:53:48;;;;;;;7.50;4.93;;;;;;;11.29;100.00;99907.53;10581140;28;20089;-71
2022/10/01 01:58:49;;;;;;;5.22;4.82;;;;;;;11.36;100.00;99923.72;10564617;28;20123;-71
2022/10/01 02:03:49;;;;;;;5.82;5.22;;;;;;;11.42;100.00;99925.50;10547267;28;20516;-70
2022/10/01 02:08:54;;;;;;;6.13;5.63;;;;;;;11.52;100.00;99906.84;10565864;28;20040;-71
2022/10/01 02:14:01;;;;;;;5.43;4.95;;;;;;;11.61;100.00;99904.63;10563963;28;20054;-71
2022/10/01 02:19:18;;;;;;;5.15;4.30;;;;;;;11.65;100.00;99895.00;10564916;28;20092;-71
2022/10/01 02:24:30;;;;;;;;;;;;;;;11.69;100.00;99911.63;10566145;28;20046;-71
2022/10/01 02:29:31;;;;;;;2.58;2.33;;;;;;;11.71;100.00;99907.66;10582397;28;19916;-71
2022/10/01 02:34:31;;;;;;;3.22;2.92;;;;;;;11.82;100.00;99901.44;10565204;28;20035;-71
2022/10/01 02:39:31;;;;;;;3.80;3.50;;;;;;;11.89;100.00;99900.53;10565245;28;20425;-71
2022/10/01 02:44:36;;;;;;;4.55;3.75;;;;;;;11.93;100.00;99888.16;10547656;28;20047;-71
2022/10/01 02:49:38;;;;;;;4.20;3.83;;;;;;;12.03;100.00;99891.16;10582671;28;20463;-72
2022/10/01 02:54:44;;;;;;;5.50;3.45;;;;;;;12.05;100.00;99900.69;10586030;28;20114;-71
2022/10/01 02:59:44;;;;;;;3.47;3.17;;;;;;;12.14;100.00;99906.63;10581865;28;20034;-72
2022/10/01 03:04:47;;;;;;;2.65;2.53;;;;;;;12.22;100.00;99900.88;10584180;28;20127;-72
2022/10/01 03:09:48;;;;;;;6.47;3.53;;;;;;;12.27;100.00;99897.47;10587943;28;20081;-71
2022/10/01 03:14:48;;;;;;;2.92;2.83;;;;;;;12.30;100.00;99897.00;10574893;28;20035;-72
2022/10/01 03:19:49;;;;;;;2.95;2.75;;;;;;;12.33;100.00;99900.06;10589839;28;20080;-72
2022/10/01 03:24:50;;;;;;;4.78;2.70;;;;;;;12.40;100.00;99894.53;10590942;28;20039;-72
2022/10/01 03:29:51;;;;;;;2.70;2.50;;;;;;;12.45;100.00;99905.53;10571518;28;20387;-72
2022/10/01 03:34:51;;;;;;;3.72;2.60;;;;;;;12.53;100.00;99907.88;10590590;28;20074;-71
2022/10/01 03:39:51;;;;;;;7.18;3.40;;;;;;;12.53;100.00;99902.44;10589861;28;20055;-72
2022/10/01 03:44:52;;;;;;;2.92;2.72;;;;;;;12.60;100.00;99913.19;10591036;28;20416;-71
2022/10/01 03:49:52;;;;;;;2.50;2.30;;;;;;;12.63;100.00;99933.63;10589269;28;20023;-71
2022/10/01 03:54:52;;;;;;;2.25;2.15;;;;;;;12.67;100.00;99941.09;10586866;28;20039;-71
2022/10/01 03:59:53;;;;;;;5.68;2.42;;;;;;;12.72;100.00;99930.31;10571330;28;20478;-72
2022/10/01 04:04:53;;;;;;;2.47;2.28;;;;;;;12.76;100.00;99939.69;10569985;28;20423;-72
2022/10/01 04:09:54;;;;;;;2.85;2.50;;;;;;;12.75;100.00;99946.16;10587891;28;20031;-72
2022/10/01 04:14:54;;;;;;;2.17;2.08;;;;;;;12.78;100.00;99955.72;10552921;28;20031;-72
2022/10/01 04:19:56;;;;;;;2.75;2.47;;;;;;;12.78;100.00;99959.28;10586261;28;20101;-73
2022/10/01 04:24:56;;;;;;;7.03;2.17;;;;;;;12.83;100.00;99971.31;10569550;28;20447;-73
2022/10/01 04:29:57;;;;;;;23.98;3.22;;;;;;;12.89;100.00;99978.53;10569055;28;20043;-72
2022/10/01 04:34:57;;;;;;;3.72;2.97;;;;;;;12.94;100.00;99989.53;10570293;28;20039;-73
2022/10/01 04:39:58;;;;;;;10.55;2.65;;;;;;;12.94;100.00;99994.97;10595360;28;20067;-73
2022/10/01 04:44:58;;;;;;;3.63;2.38;;;;;;;12.96;100.00;99998.28;10598592;28;20391;-72
2022/10/01 04:49:59;;;;;;;8.70;2.90;;;;;;;12.90;100.00;100020.97;10590436;28;20094;-73
2022/10/01 04:55:00;;;;;;;1.80;1.70;;;;;;;12.75;100.00;100014.06;10589552;28;20036;-73
2022/10/01 05:00:00;;;;;;;3.42;3.13;;;;;;;12.67;100.00;100025.28;10571660;28;20040;-73
2022/10/01 05:05:04;;;;;;;7.40;2.97;;;;;;;12.57;100.00;100031.28;10569453;28;20057;-72
2022/10/01 05:10:07;;;;;;;7.60;3.00;;;;;;;12.51;100.00;100036.81;10568904;28;20486;-73
2022/10/01 05:15:07;;;;;;;5.57;2.35;;;;;;;12.46;100.00;100047.53;10567760;28;20119;-73
2022/10/01 05:20:14;;;;;;;10.55;3.92;;;;;;;12.46;100.00;100052.97;10589635;28;20031;-73
2022/10/01 05:25:15;;;;;;;3.22;3.03;;;;;;;12.48;100.00;100067.97;10587276;28;20195;-72
2022/10/01 05:30:21;;;;;;;3.17;2.45;;;;;;;12.61;100.00;100072.41;10568034;28;20062;-72
2022/10/01 05:35:21;;;;;;;6.05;2.67;;;;;;;12.69;100.00;100073.94;10586055;28;20035;-73
2022/10/01 05:40:23;;;;;;;3.80;2.28;;;;;;;12.75;100.00;100086.59;10567821;28;20059;-73
2022/10/01 05:45:23;;;;;;;6.35;3.55;;;;;;;12.72;100.00;100079.72;10586442;28;20052;-73
2022/10/01 05:50:24;;;;;;;6.43;3.40;;;;;;;12.68;100.00;100081.25;10584447;28;20031;-73
2022/10/01 05:55:25;;;;;;;2.67;2.50;;;;;;;12.54;100.00;100088.78;10585628;28;20051;-73
2022/10/01 06:00:27;;;;;;;6.10;3.83;;;;;;;12.43;100.00;100091.44;10567863;28;20387;-73
2022/10/01 06:05:28;;;;;;;7.03;2.97;;;;;;;12.45;100.00;100097.50;10551071;28;20110;-73
2022/10/01 06:10:29;;;;;;;8.52;3.05;;;;;;;12.65;100.00;100108.88;10566288;28;20131;-73
2022/10/01 06:15:33;;;;;;;7.70;3.35;;;;;;;12.95;100.00;100118.91;10568483;28;20102;-73
2022/10/01 06:20:34;;;;;;;12.82;4.32;;;;;;;13.08;100.00;100121.44;10582554;28;20050;-73
2022/10/01 06:25:37;;;;;;;19.73;5.25;;;;;;;13.04;100.00;100121.06;10600955;28;20032;-73
2022/10/01 06:30:38;;;;;;;7.45;4.60;;;;;;;12.95;100.00;100121.63;10578778;28;20455;-74
2022/10/01 06:35:42;;;;;;;9.25;4.22;;;;;;;12.96;100.00;100123.28;10564939;28;20044;-73
2022/10/01 06:40:43;;;;;;;8.38;3.67;;;;;;;13.40;100.00;100127.44;10586014;28;20452;-73
2022/10/01 06:45:43;;;;;;;12.88;3.70;;;;;;;14.32;100.00;100129.47;10591197;28;20036;-73
2022/10/01 06:50:44;;;;;;;21.48;5.55;;;;;;;14.84;100.00;100148.50;10591646;28;20027;-74
2022/10/01 06:55:45;;;;;;;16.80;5.32;;;;;;;15.12;100.00;100138.63;10590491;28;20391;-74
2022/10/01 07:00:46;;;;;;;7.43;3.60;;;;;;;15.96;100.00;100143.28;10573882;28;20040;-75
2022/10/01 07:05:47;;;;;;;8.40;4.47;;;;;;;16.65;100.00;100138.13;10572477;28;20039;-75
2022/10/01 07:10:47;;;;;;;18.90;5.32;;;;;;;15.97;100.00;100144.91;10555843;28;20023;-74
2022/10/01 07:15:48;;;;;;;10.30;3.38;;;;;;;15.77;100.00;100154.47;10555599;28;20046;-76
2022/10/01 07:20:48;;;;;;;4.28;2.90;;;;;;;15.81;100.00;100165.72;10590088;28;20090;-75
2022/10/01 07:25:49;;;;;;;18.75;3.95;;;;;;;15.47;100.00;100176.59;10592389;28;20042;-74
2022/10/01 07:31:16;;;;;;;5.05;2.08;;;;;;;16.44;100.00;100171.78;10572392;28;20027;-77
2022/10/01 07:36:16;;;;;;;4.38;3.58;;;;;;;15.66;100.00;100179.91;10587706;28;20048;-77
2022/10/01 07:41:16;;;;;;;11.35;4.22;;;;;;;15.92;100.00;100205.75;10572110;28;20115;-75
2022/10/01 07:46:17;;;;;;;8.75;3.40;;;;;;;15.40;100.00;100208.69;10589377;28;20050;-75
2022/10/01 07:51:18;;;;;;;7.85;3.60;;;;;;;15.77;100.00;100209.06;10591154;28;20058;-75
2022/10/01 07:56:19;;;;;;;4.43;3.10;;;;;;;17.57;100.00;100214.84;10594570;28;20034;-75
2022/10/01 08:01:19;;;;;;;13.38;3.88;;;;;;;18.76;100.00;100229.94;10591821;28;20032;-75
2022/10/01 08:06:21;;;;;;;6.00;3.25;;;;;;;17.33;100.00;100237.06;10592708;28;20454;-75
2022/10/01 08:11:23;;;;;;;5.30;3.17;;;;;;;16.65;100.00;100254.84;10562161;28;20024;-75
2022/10/01 08:16:27;;;;;;;10.60;3.03;;;;;;;17.59;100.00;100245.53;10557566;28;20092;-75
2022/10/01 08:21:28;;;;;;;4.85;3.38;;;;;;;17.35;100.00;100250.50;10589492;28;20385;-75
2022/10/01 08:26:28;;;;;;;15.13;3.42;;;;;;;16.89;100.00;100272.69;10574695;28;20043;-75
2022/10/01 08:31:29;;;;;;;13.48;3.50;;;;;;;16.82;100.00;100287.66;10571587;28;20482;-74
2022/10/01 08:36:29;;;;;;;7.30;1.95;;;;;;;17.52;100.00;100286.81;10587302;28;20436;-74
2022/10/01 08:41:59;;;;;;;4.97;2.85;;;;;;;18.45;100.00;100291.97;10585787;28;20105;-74
2022/10/01 08:47:05;;;;;;;5.60;3.75;;;;;;;18.16;100.00;100294.25;10575353;28;20039;-74
2022/10/01 08:52:23;;;;;;;3.67;2.25;;;;;;;18.09;100.00;100294.47;10569067;28;20442;-73
2022/10/01 08:57:31;;;;;;;5.97;3.00;;;;;;;18.72;100.00;100302.84;10585447;28;20031;-75
2022/10/01 09:02:33;;;;;;;6.70;3.28;;;;;;;18.20;100.00;100313.72;10585916;28;20031;-73
2022/10/01 09:07:39;;;;;;;9.80;3.70;;;;;;;17.89;100.00;100330.72;10565901;28;20437;-76
2022/10/01 09:12:52;;;;;;;5.75;3.10;;;;;;;18.63;100.00;100337.31;10585854;28;20031;-74
2022/10/01 09:18:05;;;;;;;6.18;3.15;;;;;;;19.18;100.00;100344.25;10568670;28;20063;-73
2022/10/01 09:23:18;;;;;;;7.57;2.55;;;;;;;20.44;100.00;100344.72;10584432;28;20522;-72
2022/10/01 09:28:26;;;;;;;7.22;2.17;;;;;;;20.00;100.00;100362.88;10566916;28;20100;-74
2022/10/01 09:33:31;;;;;;;7.40;2.95;;;;;;;19.71;100.00;100377.91;10584704;28;20448;-72
2022/10/01 09:38:39;;;;;;;5.25;3.63;;;;;;;19.09;100.00;100388.94;10565378;28;20032;-72
2022/10/01 09:43:40;;;;;;;5.00;2.65;;;;;;;18.04;100.00;100386.75;10566848;28;20494;-73
2022/10/01 09:48:55;;;;;;;14.15;4.10;;;;;;;18.05;100.00;100402.09;10583979;28;20040;-74
2022/10/01 09:54:16;;;;;;;17.00;4.13;;;;;;;18.50;100.00;100395.34;10584429;28;20038;-73
2022/10/01 09:59:19;;;;;;;4.82;2.30;;;;;;;17.99;100.00;100403.94;10567146;28;20034;-73
2022/10/01 10:04:22;;;;;;;26.73;4.22;;;;;;;19.83;100.00;100415.31;10566161;28;20441;-74
2022/10/01 10:09:30;;;;;;;8.35;3.03;;;;;;;20.53;100.00;100422.03;10565069;28;20395;-73
2022/10/01 10:14:33;;;;;;;14.85;3.88;;;;;;;20.77;97.17;100435.22;10566320;28;20073;-74
2022/10/01 10:19:35;;;;;;;4.90;2.25;;;;;;;18.88;100.00;100442.84;10547226;28;20042;-73
2022/10/01 10:24:35;;;;;;;13.45;3.25;;;;;;;18.57;100.00;100454.41;10565683;28;20032;-74
2022/10/01 10:29:36;;;;;;;8.07;3.83;;;;;;;19.13;96.08;100453.16;10582565;28;20036;-73
2022/10/01 10:34:37;;;;;;;5.45;3.15;;;;;;;19.80;100.00;100474.38;10582331;28;20035;-73
2022/10/01 10:39:38;;;;;;;12.45;3.10;;;;;;;21.19;100.00;100480.88;10548336;28;20467;-74
2022/10/01 10:44:42;;;;;;;12.85;3.22;;;;;;;19.66;95.30;100487.81;10563536;28;20059;-74
2022/10/01 10:50:01;;;;;;;6.80;2.95;;;;;;;19.92;100.00;100496.16;10565344;28;20023;-74
2022/10/01 10:55:22;;;;;;;8.85;3.90;;;;;;;19.91;100.00;100510.97;10584103;28;20114;-73
2022/10/01 11:00:23;;;;;;;11.90;3.78;;;;;;;20.76;100.00;100511.44;10582101;28;20391;-73
2022/10/01 11:05:28;;;;;;;11.45;4.47;;;;;;;20.34;96.15;100525.41;10564424;28;20036;-74
2022/10/01 11:10:41;;;;;;;11.55;3.78;;;;;;;20.37;92.14;100531.19;10565728;28;20032;-73
2022/10/01 11:15:47;;;;;;;12.55;3.38;;;;;;;20.37;94.93;100550.44;10580980;28;20042;-72
2022/10/01 11:21:08;;;;;;;7.20;2.60;;;;;;;21.58;83.68;100552.69;10583109;28;20036;-76
2022/10/01 11:26:47;;;;;;;4.15;2.08;;;;;;;21.92;89.39;100566.66;10566275;28;20039;-77
2022/10/01 11:32:18;;;;;;;8.15;3.13;;;;;;;21.64;89.37;100578.31;10490352;28;20084;-77
2022/10/01 11:37:42;;;;;;;14.73;2.85;;;;;;;20.53;91.61;100578.84;10574870;28;20040;-75
2022/10/01 11:42:43;;;;;;;7.97;3.08;;;;;;;21.08;91.55;100595.69;10589203;28;20104;-76
2022/10/01 11:47:52;;;;;;;5.72;3.30;;;;;;;20.77;89.89;100603.09;10587890;28;20085;-76
2022/10/01 11:53:04;;;;;;;6.70;3.72;;;;;;;21.66;86.00;100611.91;10594265;28;20028;-76
2022/10/01 11:58:50;;;;;;;6.90;3.13;;;;;;;21.28;84.51;100612.22;10572133;28;20035;-76
2022/10/01 12:03:51;;;;;;;5.90;3.60;;;;;;;20.69;84.27;100620.97;10575916;28;20072;-76
2022/10/01 12:08:55;;;;;;;7.57;3.30;;;;;;;20.56;90.55;100627.81;10588455;28;20123;-76
2022/10/01 12:14:15;;;;;;;5.07;2.80;;;;;;;20.57;86.28;100626.69;10552843;28;20417;-76
2022/10/01 12:19:20;;;;;;;8.60;3.13;;;;;;;19.98;94.61;100632.50;10569716;28;20073;-75
2022/10/01 12:24:30;;;;;;;10.85;3.10;;;;;;;19.59;100.00;100642.91;10569416;28;20554;-76
2022/10/01 12:29:46;;;;;;;3.75;3.13;;;;;;;19.43;90.16;100640.06;10586081;28;20031;-75
2022/10/01 12:34:49;;;;;;;8.45;4.28;;;;;;;19.39;87.39;100643.59;10569914;28;20024;-75
2022/10/01 12:40:12;;;;;;;5.43;2.35;;;;;;;19.83;90.18;100651.63;10585073;28;20023;-75
2022/10/01 12:45:45;;;;;;;4.60;3.08;;;;;;;19.46;88.95;100660.66;10568783;28;20036;-77
2022/10/01 12:50:51;;;;;;;5.30;3.42;;;;;;;20.92;82.04;100649.91;10541901;28;20050;-78
2022/10/01 12:56:21;;;;;;;5.10;2.83;;;;;;;20.68;88.51;100668.84;10587534;28;20038;-78
2022/10/01 13:01:25;;;;;;;4.75;2.80;;;;;;;20.37;81.38;100667.88;10567556;28;20080;-78
2022/10/01 13:06:38;;;;;;;3.92;3.00;;;;;;;19.50;86.91;100681.03;10585182;28;20020;-70
2022/10/01 13:11:52;;;;;;;7.70;3.97;;;;;;;18.73;93.59;100693.16;10585881;28;20118;-71
2022/10/01 13:23:14;;;;;;;8.43;3.42;;;;;;;18.55;91.11;100702.53;10600911;28;20047;-83
2022/10/01 13:28:32;;;;;;;16.35;2.78;;;;;;;18.09;91.84;100713.72;10570121;28;20023;-77
2022/10/01 13:33:34;;;;;;;8.32;2.90;;;;;;;18.10;92.45;100731.00;10584917;28;20020;-78
2022/10/01 13:38:41;;;;;;;6.65;1.83;;;;;;;18.49;90.58;100728.22;10582486;28;20382;-79
2022/10/01 13:44:06;;;;;;;7.30;3.28;;;;;;;18.84;93.84;100743.50;10550040;28;20052;-76
2022/10/01 13:49:17;;;;;;;6.75;3.50;;;;;;;18.60;91.04;100743.72;10561648;28;20047;-78
2022/10/01 13:54:23;;;;;;;4.95;1.90;;;;;;;18.80;88.72;100737.72;10583682;28;20036;-79
2022/10/01 13:59:34;;;;;;;4.37;2.30;;;;;;;19.86;87.29;100750.84;10567082;28;20035;-79
2022/10/01 14:04:39;;;;;;;6.20;2.53;;;;;;;18.77;84.31;100771.97;10582805;28;20115;-79
2022/10/01 14:09:47;;;;;;;17.65;3.97;;;;;;;18.46;94.13;100776.19;10582195;28;20063;-82
2022/10/01 14:20:19;;;;;;;9.80;3.83;;;;;;;17.88;90.55;100785.72;10567591;28;20031;-79
2022/10/01 14:25:57;;;;;;;18.25;3.58;;;;;;;18.02;91.23;100803.47;10567382;28;20028;-80
2022/10/01 14:31:34;;;;;;;7.82;2.30;;;;;;;18.00;88.66;100804.81;10547466;28;20470;-78
2022/10/01 14:36:40;;;;;;;8.38;3.25;;;;;;;18.33;91.48;100803.97;10564224;28;20082;-80
2022/10/01 14:41:40;;;;;;;17.90;3.45;;;;;;;18.42;87.59;100804.38;10580503;28;20059;-79
2022/10/01 14:46:40;;;;;;;4.13;2.47;;;;;;;18.08;90.75;100807.94;10584101;28;20048;-83
2022/10/01 14:52:07;;;;;;;10.95;3.40;;;;;;;18.06;92.48;100814.75;10565857;28;20126;-83
2022/10/01 14:57:09;;;;;;;7.55;2.72;;;;;;;17.97;94.44;100816.28;10564609;28;20101;-83
2022/10/01 15:02:16;;;;;;;5.88;3.00;;;;;;;18.07;92.31;100821.91;10581793;28;20118;-83
2022/10/01 15:07:16;;;;;;;;;;;;;;;18.23;93.15;100821.06;10573287;28;20370;-83
2022/10/01 15:12:19;;;;;;;9.20;2.75;;;;;;;17.87;90.31;100830.63;10593964;28;19912;-84
2022/10/01 15:17:24;;;;;;;6.72;3.38;;;;;;;17.48;95.50;100837.81;10574461;28;20040;-83
2022/10/01 15:22:26;;;;;;;13.40;3.90;;;;;;;17.21;97.07;100841.13;10575912;28;20031;-83
2022/10/01 15:27:27;;;;;;;9.90;3.83;;;;;;;17.10;91.86;100850.19;10574229;28;20051;-84
2022/10/01 15:32:28;;;;;;;15.15;4.47;;;;;;;16.76;98.96;100854.69;10564796;28;20051;-84
2022/10/01 15:37:35;;;;;;;7.68;4.28;;;;;;;16.63;93.93;100847.53;10586339;28;20524;-83
2022/10/01 15:42:35;;;;;;;6.28;3.20;;;;;;;16.91;95.57;100863.19;10598207;28;20050;-84
2022/10/01 15:47:36;;;;;;;4.03;3.13;;;;;;;16.89;93.60;100871.66;10584750;28;20043;-83
2022/10/01 15:52:49;;;;;;;8.10;3.53;;;;;;;16.57;92.95;100870.34;10582377;28;20071;-82
2022/10/01 15:57:54;;;;;;;9.68;3.70;;;;;;;16.46;97.37;100878.31;10574621;28;20122;-83
2022/10/01 16:02:55;;;;;;;6.97;3.30;;;;;;;16.41;98.62;100870.00;10572795;28;20065;-82
2022/10/01 16:07:57;;;;;;;5.70;4.43;;;;;;;16.57;99.03;100878.56;10558163;28;20043;-83
2022/10/01 16:12:57;;;;;;;7.65;3.28;;;;;;;16.64;97.42;100887.47;10582841;28;20506;-82
2022/10/01 16:18:01;;;;;;;8.35;4.22;;;;;;;16.50;96.38;100884.97;10611623;28;20095;-82
2022/10/01 16:23:33;;;;;;;11.95;3.25;;;;;;;16.34;95.25;100904.81;10592720;28;20020;-83
2022/10/01 16:28:34;;;;;;;4.30;2.78;;;;;;;16.46;94.82;100900.19;10620957;28;20050;-82
2022/10/01 16:33:34;;;;;;;7.82;4.25;;;;;;;16.34;97.70;100914.91;10607497;28;20023;-83
2022/10/01 16:38:35;;;;;;;11.57;4.07;;;;;;;16.08;99.15;100907.94;10604284;28;20039;-83
2022/10/01 16:43:35;;;;;;;20.20;3.50;;;;;;;15.91;100.00;100924.16;10602195;28;20052;-83
2022/10/01 16:48:36;;;;;;;15.32;3.85;;;;;;;15.93;100.00;100927.50;10576538;28;20036;-83
2022/10/01 16:53:38;;;;;;;16.92;4.70;;;;;;;15.88;100.00;100941.03;10559517;28;20031;-83
2022/10/01 16:58:39;;;;;;;12.73;4.53;;;;;;;15.74;100.00;100943.94;10575932;28;20039;-83
2022/10/01 17:03:39;;;;;;;10.73;5.15;;;;;;;15.59;100.00;100963.41;10599515;28;20039;-84
2022/10/01 17:08:40;;;;;;;7.35;4.15;;;;;;;15.49;100.00;100954.09;10587059;28;20031;-82
2022/10/01 17:13:41;;;;;;;10.88;3.22;;;;;;;15.45;100.00;100959.19;10601028;28;20027;-83
2022/10/01 17:18:42;;;;;;;4.30;3.03;;;;;;;15.48;100.00;100964.19;10601129;28;20099;-83
2022/10/01 17:23:42;;;;;;;12.48;3.53;;;;;;;15.58;100.00;100966.38;10590662;28;20051;-84
2022/10/01 17:28:43;;;;;;;10.65;3.22;;;;;;;15.53;100.00;100977.13;10606365;28;20039;-83
2022/10/01 17:33:44;;;;;;;10.60;3.60;;;;;;;15.27;100.00;100995.47;10609821;28;20032;-82
2022/10/01 17:38:44;;;;;;;9.95;3.72;;;;;;;15.13;100.00;100999.41;10613362;28;20061;-82
2022/10/01 17:43:45;;;;;;;4.47;3.03;;;;;;;15.20;100.00;101004.81;10606318;28;20059;-83
2022/10/01 17:48:47;;;;;;;13.27;3.58;;;;;;;15.36;100.00;101017.84;10583426;28;20379;-83
2022/10/01 17:53:47;;;;;;;11.10;3.80;;;;;;;15.40;100.00;101023.69;10602098;28;20101;-83
2022/10/01 17:58:48;;;;;;;2.70;2.03;;;;;;;15.31;100.00;101023.16;10592573;28;20039;-82
2022/10/01 18:03:54;;;;;;;8.30;2.75;;;;;;;15.32;100.00;101033.00;10615108;28;20035;-82
2022/10/01 18:08:54;;;;;;;9.83;4.17;;;;;;;15.26;100.00;101040.19;10585699;28;20115;-81
2022/10/01 18:13:55;;;;;;;9.40;2.55;;;;;;;15.13;100.00;101048.50;10616987;28;20031;-82
2022/10/01 18:18:56;;;;;;;7.72;3.25;;;;;;;14.94;100.00;101055.81;10602753;28;20039;-82
2022/10/01 18:23:56;;;;;;;13.85;3.67;;;;;;;14.72;100.00;101057.25;10598503;28;20165;-83
2022/10/01 18:28:57;;;;;;;10.73;4.60;;;;;;;14.56;100.00;101061.34;10582502;28;20081;-83
2022/10/01 18:33:59;;;;;;;12.35;4.40;;;;;;;14.51;100.00;101072.88;10597496;28;20043;-82
2022/10/01 18:39:06;;;;;;;20.25;3.88;;;;;;;14.53;100.00;101076.25;10595494;28;20043;-84
2022/10/01 18:44:14;;;;;;;10.15;3.78;;;;;;;14.56;100.00;101081.25;10562958;28;20387;-83
2022/10/01 18:49:33;;;;;;;12.77;4.63;;;;;;;14.73;100.00;101084.28;10579923;28;20040;-83
2022/10/01 18:54:50;;;;;;;12.73;4.03;;;;;;;14.74;100.00;101090.56;10583041;28;20034;-83
2022/10/01 18:59:56;;;;;;;24.88;4.30;;;;;;;14.72;100.00;101087.22;10580936;28;20035;-83
2022/10/01 19:05:25;;;;;;;12.15;2.95;;;;;;;14.56;100.00;101096.78;10623356;28;20081;-82
2022/10/01 19:10:55;;;;;;;16.08;4.93;;;;;;;14.37;100.00;101102.06;10626605;28;20020;-80
2022/10/01 19:15:55;;;;;;;5.63;3.50;;;;;;;14.25;100.00;101111.97;10572863;28;20035;-80
2022/10/01 19:21:12;;;;;;;24.45;4.70;;;;;;;14.22;100.00;101114.31;10600211;28;20031;-82
2022/10/01 19:26:56;;;;;;;15.07;4.72;;;;;;;14.12;100.00;101118.31;10595368;28;20049;-82
2022/10/01 19:31:59;;;;;;;10.70;3.88;;;;;;;14.04;100.00;101134.06;10604312;28;20055;-83
2022/10/01 19:37:09;;;;;;;7.80;3.15;;;;;;;14.02;100.00;101137.00;10589500;28;20032;-84
2022/10/01 19:42:12;;;;;;;7.03;3.47;;;;;;;14.05;100.00;101136.59;10606137;28;20043;-81
2022/10/01 19:48:08;;;;;;;13.93;4.43;;;;;;;14.05;100.00;101141.19;10606082;28;20032;-80
2022/10/01 19:53:21;;;;;;;18.02;4.65;;;;;;;13.98;100.00;101145.84;10510538;28;20036;-81
2022/10/01 19:58:23;;;;;;;10.80;4.53;;;;;;;13.99;100.00;101152.94;10595039;28;20035;-82
2022/10/01 20:03:39;;;;;;;17.15;4.95;;;;;;;13.94;100.00;101154.44;10613422;28;20024;-82
2022/10/01 20:08:52;;;;;;;10.25;4.20;;;;;;;13.85;100.00;101157.59;10600293;28;20034;-83
2022/10/01 20:13:52;;;;;;;26.70;5.05;;;;;;;13.82;100.00;101169.75;10576473;28;20064;-82
2022/10/01 20:19:23;;;;;;;13.77;4.68;;;;;;;13.72;100.00;101177.50;10582958;28;20039;-83
2022/10/01 20:24:48;;;;;;;10.05;4.50;;;;;;;13.63;100.00;101192.38;10598435;28;20065;-83
2022/10/01 20:30:00;;;;;;;17.48;4.75;;;;;;;13.59;100.00;101196.53;10594713;28;20067;-83
2022/10/01 20:35:04;;;;;;;17.90;5.38;;;;;;;13.47;100.00;101212.69;10609524;28;20047;-81
2022/10/01 20:40:17;;;;;;;9.40;3.63;;;;;;;13.42;100.00;101198.84;10611605;28;20035;-82
2022/10/01 20:45:21;;;;;;;12.00;4.03;;;;;;;13.39;100.00;101210.16;10613438;28;20079;-82
2022/10/01 20:50:24;;;;;;;15.77;4.10;;;;;;;13.38;100.00;101208.50;10603128;28;20040;-81
2022/10/01 20:55:28;;;;;;;22.70;4.68;;;;;;;13.32;100.00;101199.28;10569764;28;20031;-82
2022/10/01 21:00:29;;;;;;;7.97;3.22;;;;;;;13.41;100.00;101214.34;10590847;28;20027;-81
2022/10/01 21:05:52;;;;;;;10.10;4.72;;;;;;;13.65;100.00;101207.41;10593921;28;20031;-80
2022/10/01 21:10:54;;;;;;;12.35;4.30;;;;;;;13.88;100.00;101212.44;10592102;28;20034;-82
2022/10/01 21:16:49;;;;;;;19.42;6.00;;;;;;;14.07;100.00;101197.13;10595358;28;20063;-81
2022/10/01 21:21:52;;;;;;;9.07;4.03;;;;;;;14.28;100.00;101212.34;10579459;28;20047;-83
2022/10/01 21:27:07;;;;;;;17.40;4.05;;;;;;;14.42;100.00;101215.84;10584822;28;20032;-82
2022/10/01 21:32:29;;;;;;;8.57;4.55;;;;;;;14.56;100.00;101235.75;10596034;28;20027;-82
2022/10/01 21:37:33;;;;;;;9.15;4.70;;;;;;;14.60;100.00;101251.44;10600685;28;20058;-85
2022/10/01 21:43:08;;;;;;;9.93;2.72;;;;;;;14.35;100.00;101258.63;10574490;28;20048;-76
2022/10/01 21:48:36;;;;;;;8.00;2.35;;;;;;;14.12;100.00;101254.50;10573853;28;20073;-83
2022/10/01 21:53:51;;;;;;;6.15;2.97;;;;;;;13.96;100.00;101236.72;10619274;28;20118;-83
2022/10/01 21:59:00;;;;;;;7.60;2.85;;;;;;;13.75;100.00;101255.16;10625423;28;20024;-85
2022/10/01 22:04:13;;;;;;;4.32;2.15;;;;;;;13.44;100.00;101252.00;10590514;28;20036;-85
2022/10/01 22:09:34;;;;;;;10.10;2.65;;;;;;;13.13;100.00;101251.72;10588468;28;20034;-83
2022/10/01 22:14:35;;;;;;;3.60;2.17;;;;;;;12.88;100.00;101254.16;10552918;28;20027;-83
2022/10/01 22:19:37;;;;;;;4.75;2.05;;;;;;;12.76;100.00;101257.47;10569617;28;20456;-84
2022/10/01 22:24:42;;;;;;;5.68;1.85;;;;;;;12.84;100.00;101250.19;10573576;28;20463;-85
2022/10/01 22:30:10;;;;;;;8.05;2.88;;;;;;;12.97;100.00;101256.50;10584853;28;20039;-85
2022/10/01 22:35:18;;;;;;;9.52;1.58;;;;;;;12.91;100.00;101262.75;10593573;28;20035;-84
2022/10/01 22:40:30;;;;;;;12.45;3.33;;;;;;;12.77;100.00;101269.19;10571654;28;20391;-85
2022/10/01 22:45:36;;;;;;;9.32;3.40;;;;;;;12.73;100.00;101279.63;10577041;28;20078;-84
2022/10/01 22:50:37;;;;;;;;;;;;;;;12.77;100.00;101282.78;10585886;28;20028;-83
2022/10/01 22:56:01;;;;;;;10.50;2.30;;;;;;;12.93;100.00;101274.25;10609415;28;19939;-83
2022/10/01 23:01:28;;;;;;;23.52;2.85;;;;;;;12.99;100.00;101280.75;10593281;28;20092;-83
2022/10/01 23:06:54;;;;;;;19.52;3.85;;;;;;;13.02;100.00;101285.78;10566190;28;20049;-83
2022/10/01 23:12:22;;;;;;;7.87;3.93;;;;;;;12.98;100.00;101292.66;10555637;28;20036;-82
2022/10/01 23:17:48;;;;;;;17.90;3.42;;;;;;;13.07;100.00;101302.31;10583571;28;20023;-82
2022/10/01 23:23:33;;;;;;;13.25;3.80;;;;;;;13.20;100.00;101307.78;10584704;28;20035;-81
2022/10/01 23:28:44;;;;;;;8.00;3.63;;;;;;;13.30;100.00;101302.00;10590173;28;20043;-81
2022/10/01 23:34:18;;;;;;;21.17;3.97;;;;;;;13.38;100.00;101307.25;10575085;28;20067;-80